sensor_id;sensor_type;location;lat;lon;timestamp;P1;durP1;ratioP1;P2;durP2;ratioP2
65206;SDS011;58477;48.072;11.970;2023-10-19T00:00:30;25.67;;;14.82;;
65206;SDS011;58477;48.072;11.970;2023-10-19T00:02:58;26.23;;;13.07;;
65206;SDS011;58477;48.072;11.970;2023-10-19T00:05:27;27.00;;;13.55;;
65206;SDS011;58477;48.072;11.970;2023-10-19T00:07:55;26.88;;;14.82;;
65206;SDS011;58477;48.072;11.970;2023-10-19T00:10:23;24.08;;;14.43;;
65206;SDS011;58477;48.072;11.970;2023-10-19T00:12:50;28.13;;;14.63;;
65206;SDS011;58477;48.072;11.970;2023-10-19T00:15:25;21.90;;;13.68;;
65206;SDS011;58477;48.072;11.970;2023-10-19T00:17:55;20.33;;;13.18;;
65206;SDS011;58477;48.072;11.970;2023-10-19T00:20:21;20.35;;;13.70;;
65206;SDS011;58477;48.072;11.970;2023-10-19T00:23:16;25.63;;;14.68;;
65206;SDS011;58477;48.072;11.970;2023-10-19T00:25:49;23.27;;;13.82;;
65206;SDS011;58477;48.072;11.970;2023-10-19T00:28:18;24.88;;;14.75;;
65206;SDS011;58477;48.072;11.970;2023-10-19T00:30:44;24.88;;;14.75;;
65206;SDS011;58477;48.072;11.970;2023-10-19T00:33:11;24.50;;;14.43;;
65206;SDS011;58477;48.072;11.970;2023-10-19T00:35:49;25.10;;;13.55;;
65206;SDS011;58477;48.072;11.970;2023-10-19T00:38:31;27.92;;;14.77;;
65206;SDS011;58477;48.072;11.970;2023-10-19T00:41:06;26.48;;;14.43;;
65206;SDS011;58477;48.072;11.970;2023-10-19T00:43:45;34.90;;;17.02;;
65206;SDS011;58477;48.072;11.970;2023-10-19T00:46:17;26.52;;;15.70;;
65206;SDS011;58477;48.072;11.970;2023-10-19T00:48:51;30.67;;;16.33;;
65206;SDS011;58477;48.072;11.970;2023-10-19T00:51:24;28.65;;;15.65;;
65206;SDS011;58477;48.072;11.970;2023-10-19T00:53:53;26.10;;;15.30;;
65206;SDS011;58477;48.072;11.970;2023-10-19T00:56:21;22.92;;;14.95;;
65206;SDS011;58477;48.072;11.970;2023-10-19T00:58:49;22.30;;;14.20;;
65206;SDS011;58477;48.072;11.970;2023-10-19T01:01:22;33.95;;;16.27;;
65206;SDS011;58477;48.072;11.970;2023-10-19T01:03:53;24.55;;;13.82;;
65206;SDS011;58477;48.072;11.970;2023-10-19T01:06:22;22.67;;;14.32;;
65206;SDS011;58477;48.072;11.970;2023-10-19T01:08:48;25.05;;;14.90;;
65206;SDS011;58477;48.072;11.970;2023-10-19T01:11:16;28.30;;;14.30;;
65206;SDS011;58477;48.072;11.970;2023-10-19T01:13:45;20.13;;;13.50;;
65206;SDS011;58477;48.072;11.970;2023-10-19T01:16:17;23.05;;;14.38;;
65206;SDS011;58477;48.072;11.970;2023-10-19T01:18:50;19.10;;;13.35;;
65206;SDS011;58477;48.072;11.970;2023-10-19T01:21:21;24.17;;;15.30;;
65206;SDS011;58477;48.072;11.970;2023-10-19T01:26:16;23.23;;;13.70;;
65206;SDS011;58477;48.072;11.970;2023-10-19T01:28:51;23.77;;;14.27;;
65206;SDS011;58477;48.072;11.970;2023-10-19T01:31:26;24.17;;;13.52;;
65206;SDS011;58477;48.072;11.970;2023-10-19T01:33:54;24.83;;;15.40;;
65206;SDS011;58477;48.072;11.970;2023-10-19T01:36:23;22.80;;;13.50;;
65206;SDS011;58477;48.072;11.970;2023-10-19T01:38:50;21.88;;;14.05;;
65206;SDS011;58477;48.072;11.970;2023-10-19T01:41:19;24.58;;;15.23;;
65206;SDS011;58477;48.072;11.970;2023-10-19T01:43:46;29.70;;;16.40;;
65206;SDS011;58477;48.072;11.970;2023-10-19T01:46:14;27.80;;;15.95;;
65206;SDS011;58477;48.072;11.970;2023-10-19T01:48:47;25.65;;;15.55;;
65206;SDS011;58477;48.072;11.970;2023-10-19T01:51:15;28.25;;;15.43;;
65206;SDS011;58477;48.072;11.970;2023-10-19T01:53:42;28.15;;;15.13;;
65206;SDS011;58477;48.072;11.970;2023-10-19T01:56:14;26.42;;;15.82;;
65206;SDS011;58477;48.072;11.970;2023-10-19T01:58:45;25.20;;;16.05;;
65206;SDS011;58477;48.072;11.970;2023-10-19T02:01:12;26.90;;;15.98;;
65206;SDS011;58477;48.072;11.970;2023-10-19T02:03:42;29.42;;;16.38;;
65206;SDS011;58477;48.072;11.970;2023-10-19T02:06:12;27.90;;;15.27;;
65206;SDS011;58477;48.072;11.970;2023-10-19T02:08:46;23.17;;;15.10;;
65206;SDS011;58477;48.072;11.970;2023-10-19T02:11:20;23.20;;;14.70;;
65206;SDS011;58477;48.072;11.970;2023-10-19T02:13:47;27.48;;;15.30;;
65206;SDS011;58477;48.072;11.970;2023-10-19T02:16:17;23.05;;;14.52;;
65206;SDS011;58477;48.072;11.970;2023-10-19T02:18:50;24.60;;;14.00;;
65206;SDS011;58477;48.072;11.970;2023-10-19T02:21:17;21.95;;;13.85;;
65206;SDS011;58477;48.072;11.970;2023-10-19T02:23:55;19.80;;;12.13;;
65206;SDS011;58477;48.072;11.970;2023-10-19T02:26:22;23.30;;;12.68;;
65206;SDS011;58477;48.072;11.970;2023-10-19T02:28:51;24.08;;;14.10;;
65206;SDS011;58477;48.072;11.970;2023-10-19T02:31:16;22.85;;;13.70;;
65206;SDS011;58477;48.072;11.970;2023-10-19T02:33:50;23.65;;;14.50;;
65206;SDS011;58477;48.072;11.970;2023-10-19T02:36:25;28.70;;;13.57;;
65206;SDS011;58477;48.072;11.970;2023-10-19T02:38:55;23.15;;;13.57;;
65206;SDS011;58477;48.072;11.970;2023-10-19T02:41:27;20.55;;;12.85;;
65206;SDS011;58477;48.072;11.970;2023-10-19T02:43:53;24.13;;;13.95;;
65206;SDS011;58477;48.072;11.970;2023-10-19T02:46:38;22.90;;;12.95;;
65206;SDS011;58477;48.072;11.970;2023-10-19T02:49:04;23.20;;;12.77;;
65206;SDS011;58477;48.072;11.970;2023-10-19T02:51:36;24.38;;;13.43;;
65206;SDS011;58477;48.072;11.970;2023-10-19T02:54:02;20.02;;;12.50;;
65206;SDS011;58477;48.072;11.970;2023-10-19T02:56:33;21.27;;;13.57;;
65206;SDS011;58477;48.072;11.970;2023-10-19T02:59:03;22.00;;;13.20;;
65206;SDS011;58477;48.072;11.970;2023-10-19T03:01:30;23.50;;;13.48;;
65206;SDS011;58477;48.072;11.970;2023-10-19T03:03:59;22.70;;;14.30;;
65206;SDS011;58477;48.072;11.970;2023-10-19T03:06:30;24.98;;;13.40;;
65206;SDS011;58477;48.072;11.970;2023-10-19T03:09:03;20.35;;;12.85;;
65206;SDS011;58477;48.072;11.970;2023-10-19T03:11:38;23.73;;;13.75;;
65206;SDS011;58477;48.072;11.970;2023-10-19T03:14:07;26.77;;;14.65;;
65206;SDS011;58477;48.072;11.970;2023-10-19T03:16:34;19.98;;;12.55;;
65206;SDS011;58477;48.072;11.970;2023-10-19T03:19:01;19.40;;;11.90;;
65206;SDS011;58477;48.072;11.970;2023-10-19T03:21:26;21.55;;;12.05;;
65206;SDS011;58477;48.072;11.970;2023-10-19T03:23:56;18.48;;;11.38;;
65206;SDS011;58477;48.072;11.970;2023-10-19T03:26:27;18.30;;;11.90;;
65206;SDS011;58477;48.072;11.970;2023-10-19T03:28:56;22.20;;;12.85;;
65206;SDS011;58477;48.072;11.970;2023-10-19T03:31:27;20.25;;;10.82;;
65206;SDS011;58477;48.072;11.970;2023-10-19T03:33:53;20.25;;;12.00;;
65206;SDS011;58477;48.072;11.970;2023-10-19T03:36:27;19.17;;;12.05;;
65206;SDS011;58477;48.072;11.970;2023-10-19T03:38:53;18.48;;;11.65;;
65206;SDS011;58477;48.072;11.970;2023-10-19T03:41:20;16.73;;;11.50;;
65206;SDS011;58477;48.072;11.970;2023-10-19T03:43:49;19.77;;;12.38;;
65206;SDS011;58477;48.072;11.970;2023-10-19T03:46:17;18.55;;;12.15;;
65206;SDS011;58477;48.072;11.970;2023-10-19T03:48:55;19.05;;;12.13;;
65206;SDS011;58477;48.072;11.970;2023-10-19T03:51:27;21.02;;;12.77;;
65206;SDS011;58477;48.072;11.970;2023-10-19T03:54:04;20.70;;;12.07;;
65206;SDS011;58477;48.072;11.970;2023-10-19T03:56:34;17.52;;;11.43;;
65206;SDS011;58477;48.072;11.970;2023-10-19T03:59:01;16.33;;;10.40;;
65206;SDS011;58477;48.072;11.970;2023-10-19T04:01:26;20.10;;;12.18;;
65206;SDS011;58477;48.072;11.970;2023-10-19T04:03:52;25.60;;;12.75;;
65206;SDS011;58477;48.072;11.970;2023-10-19T04:06:20;21.33;;;12.75;;
65206;SDS011;58477;48.072;11.970;2023-10-19T04:08:46;20.15;;;12.80;;
65206;SDS011;58477;48.072;11.970;2023-10-19T04:11:16;20.75;;;12.82;;
65206;SDS011;58477;48.072;11.970;2023-10-19T04:13:49;22.55;;;12.98;;
65206;SDS011;58477;48.072;11.970;2023-10-19T04:16:18;20.02;;;12.98;;
65206;SDS011;58477;48.072;11.970;2023-10-19T04:18:47;21.08;;;12.27;;
65206;SDS011;58477;48.072;11.970;2023-10-19T04:21:13;21.02;;;12.70;;
65206;SDS011;58477;48.072;11.970;2023-10-19T04:23:39;20.70;;;11.82;;
65206;SDS011;58477;48.072;11.970;2023-10-19T04:26:04;17.48;;;11.35;;
65206;SDS011;58477;48.072;11.970;2023-10-19T04:28:31;19.67;;;12.00;;
65206;SDS011;58477;48.072;11.970;2023-10-19T04:31:03;23.08;;;11.20;;
65206;SDS011;58477;48.072;11.970;2023-10-19T04:33:31;15.38;;;11.00;;
65206;SDS011;58477;48.072;11.970;2023-10-19T04:35:57;14.18;;;10.23;;
65206;SDS011;58477;48.072;11.970;2023-10-19T04:38:26;15.13;;;10.40;;
65206;SDS011;58477;48.072;11.970;2023-10-19T04:40:52;18.25;;;10.88;;
65206;SDS011;58477;48.072;11.970;2023-10-19T04:43:17;17.88;;;11.48;;
65206;SDS011;58477;48.072;11.970;2023-10-19T04:45:43;20.13;;;10.95;;
65206;SDS011;58477;48.072;11.970;2023-10-19T04:48:10;15.95;;;11.05;;
65206;SDS011;58477;48.072;11.970;2023-10-19T04:50:35;17.67;;;11.00;;
65206;SDS011;58477;48.072;11.970;2023-10-19T04:53:01;18.42;;;11.32;;
65206;SDS011;58477;48.072;11.970;2023-10-19T04:55:27;17.95;;;10.93;;
65206;SDS011;58477;48.072;11.970;2023-10-19T04:57:55;17.77;;;10.90;;
65206;SDS011;58477;48.072;11.970;2023-10-19T05:00:22;19.08;;;11.27;;
65206;SDS011;58477;48.072;11.970;2023-10-19T05:02:49;17.15;;;10.65;;
65206;SDS011;58477;48.072;11.970;2023-10-19T05:05:17;17.85;;;10.70;;
65206;SDS011;58477;48.072;11.970;2023-10-19T05:07:43;17.27;;;10.98;;
65206;SDS011;58477;48.072;11.970;2023-10-19T05:10:09;16.42;;;11.13;;
65206;SDS011;58477;48.072;11.970;2023-10-19T05:12:34;16.48;;;10.48;;
65206;SDS011;58477;48.072;11.970;2023-10-19T05:15:00;17.23;;;11.05;;
65206;SDS011;58477;48.072;11.970;2023-10-19T05:17:25;17.77;;;10.70;;
65206;SDS011;58477;48.072;11.970;2023-10-19T05:19:52;15.38;;;10.65;;
65206;SDS011;58477;48.072;11.970;2023-10-19T05:22:18;15.88;;;10.10;;
65206;SDS011;58477;48.072;11.970;2023-10-19T05:24:43;18.65;;;10.55;;
65206;SDS011;58477;48.072;11.970;2023-10-19T05:27:09;18.60;;;10.85;;
65206;SDS011;58477;48.072;11.970;2023-10-19T05:29:35;17.55;;;9.98;;
65206;SDS011;58477;48.072;11.970;2023-10-19T05:32:01;18.73;;;10.93;;
65206;SDS011;58477;48.072;11.970;2023-10-19T05:34:27;15.23;;;10.75;;
65206;SDS011;58477;48.072;11.970;2023-10-19T05:36:54;21.15;;;11.05;;
65206;SDS011;58477;48.072;11.970;2023-10-19T05:39:23;16.98;;;9.82;;
65206;SDS011;58477;48.072;11.970;2023-10-19T05:41:53;14.52;;;9.77;;
65206;SDS011;58477;48.072;11.970;2023-10-19T05:44:19;14.77;;;9.90;;
65206;SDS011;58477;48.072;11.970;2023-10-19T05:46:44;16.50;;;9.63;;
65206;SDS011;58477;48.072;11.970;2023-10-19T05:49:11;13.25;;;9.25;;
65206;SDS011;58477;48.072;11.970;2023-10-19T05:51:37;13.80;;;8.90;;
65206;SDS011;58477;48.072;11.970;2023-10-19T05:54:03;14.75;;;10.07;;
65206;SDS011;58477;48.072;11.970;2023-10-19T05:56:29;13.93;;;9.43;;
65206;SDS011;58477;48.072;11.970;2023-10-19T05:58:56;17.23;;;10.48;;
65206;SDS011;58477;48.072;11.970;2023-10-19T06:01:22;13.32;;;9.77;;
65206;SDS011;58477;48.072;11.970;2023-10-19T06:03:48;16.33;;;11.07;;
65206;SDS011;58477;48.072;11.970;2023-10-19T06:06:13;18.23;;;11.98;;
65206;SDS011;58477;48.072;11.970;2023-10-19T06:08:42;16.52;;;11.57;;
65206;SDS011;58477;48.072;11.970;2023-10-19T06:11:07;17.92;;;11.02;;
65206;SDS011;58477;48.072;11.970;2023-10-19T06:13:33;18.08;;;11.50;;
65206;SDS011;58477;48.072;11.970;2023-10-19T06:15:58;20.77;;;11.35;;
65206;SDS011;58477;48.072;11.970;2023-10-19T06:18:23;16.30;;;10.40;;
65206;SDS011;58477;48.072;11.970;2023-10-19T06:20:49;12.68;;;9.05;;
65206;SDS011;58477;48.072;11.970;2023-10-19T06:23:16;19.58;;;8.93;;
65206;SDS011;58477;48.072;11.970;2023-10-19T06:25:43;14.35;;;9.23;;
65206;SDS011;58477;48.072;11.970;2023-10-19T06:28:08;11.45;;;7.72;;
65206;SDS011;58477;48.072;11.970;2023-10-19T06:30:36;17.55;;;9.52;;
65206;SDS011;58477;48.072;11.970;2023-10-19T06:33:02;14.75;;;10.32;;
65206;SDS011;58477;48.072;11.970;2023-10-19T06:35:28;19.55;;;11.13;;
65206;SDS011;58477;48.072;11.970;2023-10-19T06:37:58;13.93;;;9.77;;
65206;SDS011;58477;48.072;11.970;2023-10-19T06:40:24;15.80;;;9.57;;
65206;SDS011;58477;48.072;11.970;2023-10-19T06:42:51;14.52;;;9.60;;
65206;SDS011;58477;48.072;11.970;2023-10-19T06:45:21;15.95;;;10.65;;
65206;SDS011;58477;48.072;11.970;2023-10-19T06:47:47;16.23;;;10.10;;
65206;SDS011;58477;48.072;11.970;2023-10-19T06:50:14;16.92;;;10.13;;
65206;SDS011;58477;48.072;11.970;2023-10-19T06:52:42;15.00;;;10.48;;
65206;SDS011;58477;48.072;11.970;2023-10-19T06:55:09;19.55;;;10.27;;
65206;SDS011;58477;48.072;11.970;2023-10-19T06:57:39;18.80;;;10.00;;
65206;SDS011;58477;48.072;11.970;2023-10-19T07:00:08;14.15;;;9.90;;
65206;SDS011;58477;48.072;11.970;2023-10-19T07:02:52;16.08;;;10.32;;
65206;SDS011;58477;48.072;11.970;2023-10-19T07:05:18;17.17;;;10.07;;
65206;SDS011;58477;48.072;11.970;2023-10-19T07:07:49;16.50;;;11.20;;
65206;SDS011;58477;48.072;11.970;2023-10-19T07:10:17;17.85;;;10.30;;
65206;SDS011;58477;48.072;11.970;2023-10-19T07:12:44;18.85;;;10.30;;
65206;SDS011;58477;48.072;11.970;2023-10-19T07:15:11;18.17;;;10.65;;
65206;SDS011;58477;48.072;11.970;2023-10-19T07:17:40;18.10;;;10.00;;
65206;SDS011;58477;48.072;11.970;2023-10-19T07:20:07;17.67;;;10.15;;
65206;SDS011;58477;48.072;11.970;2023-10-19T07:22:37;14.80;;;9.25;;
65206;SDS011;58477;48.072;11.970;2023-10-19T07:25:04;12.98;;;9.55;;
65206;SDS011;58477;48.072;11.970;2023-10-19T07:27:31;12.35;;;8.48;;
65206;SDS011;58477;48.072;11.970;2023-10-19T07:29:58;14.57;;;9.43;;
65206;SDS011;58477;48.072;11.970;2023-10-19T07:32:24;14.20;;;9.80;;
65206;SDS011;58477;48.072;11.970;2023-10-19T07:34:50;12.32;;;8.95;;
65206;SDS011;58477;48.072;11.970;2023-10-19T07:37:15;12.40;;;8.73;;
65206;SDS011;58477;48.072;11.970;2023-10-19T07:39:49;12.73;;;8.52;;
65206;SDS011;58477;48.072;11.970;2023-10-19T07:42:21;11.63;;;8.00;;
65206;SDS011;58477;48.072;11.970;2023-10-19T07:44:47;10.13;;;7.35;;
65206;SDS011;58477;48.072;11.970;2023-10-19T07:47:12;11.90;;;7.80;;
65206;SDS011;58477;48.072;11.970;2023-10-19T07:49:38;12.18;;;8.10;;
65206;SDS011;58477;48.072;11.970;2023-10-19T07:52:04;14.30;;;8.30;;
65206;SDS011;58477;48.072;11.970;2023-10-19T07:54:32;12.50;;;8.40;;
65206;SDS011;58477;48.072;11.970;2023-10-19T07:56:58;11.90;;;8.55;;
65206;SDS011;58477;48.072;11.970;2023-10-19T07:59:28;10.77;;;8.55;;
65206;SDS011;58477;48.072;11.970;2023-10-19T08:01:54;15.30;;;9.30;;
65206;SDS011;58477;48.072;11.970;2023-10-19T08:04:19;12.00;;;8.50;;
65206;SDS011;58477;48.072;11.970;2023-10-19T08:06:44;11.23;;;7.95;;
65206;SDS011;58477;48.072;11.970;2023-10-19T08:09:10;11.20;;;7.65;;
65206;SDS011;58477;48.072;11.970;2023-10-19T08:11:36;14.65;;;7.70;;
65206;SDS011;58477;48.072;11.970;2023-10-19T08:14:02;10.00;;;7.60;;
65206;SDS011;58477;48.072;11.970;2023-10-19T08:16:27;10.35;;;8.25;;
65206;SDS011;58477;48.072;11.970;2023-10-19T08:18:52;9.25;;;7.40;;
65206;SDS011;58477;48.072;11.970;2023-10-19T08:21:18;10.70;;;6.80;;
65206;SDS011;58477;48.072;11.970;2023-10-19T08:23:43;8.35;;;6.93;;
65206;SDS011;58477;48.072;11.970;2023-10-19T08:26:10;10.07;;;6.55;;
65206;SDS011;58477;48.072;11.970;2023-10-19T08:28:35;9.52;;;7.05;;
65206;SDS011;58477;48.072;11.970;2023-10-19T08:31:02;13.23;;;6.68;;
65206;SDS011;58477;48.072;11.970;2023-10-19T08:33:28;9.30;;;6.80;;
65206;SDS011;58477;48.072;11.970;2023-10-19T08:35:58;9.90;;;6.85;;
65206;SDS011;58477;48.072;11.970;2023-10-19T08:38:25;10.02;;;6.47;;
65206;SDS011;58477;48.072;11.970;2023-10-19T08:40:50;10.75;;;6.90;;
65206;SDS011;58477;48.072;11.970;2023-10-19T08:43:17;8.40;;;6.28;;
65206;SDS011;58477;48.072;11.970;2023-10-19T08:45:46;6.93;;;4.97;;
65206;SDS011;58477;48.072;11.970;2023-10-19T08:48:12;7.80;;;5.93;;
65206;SDS011;58477;48.072;11.970;2023-10-19T08:50:39;8.02;;;6.18;;
65206;SDS011;58477;48.072;11.970;2023-10-19T08:53:06;8.13;;;5.82;;
65206;SDS011;58477;48.072;11.970;2023-10-19T08:55:33;9.50;;;5.43;;
65206;SDS011;58477;48.072;11.970;2023-10-19T08:58:02;7.90;;;5.38;;
65206;SDS011;58477;48.072;11.970;2023-10-19T09:00:42;8.13;;;5.18;;
65206;SDS011;58477;48.072;11.970;2023-10-19T09:03:19;11.15;;;6.10;;
65206;SDS011;58477;48.072;11.970;2023-10-19T09:05:45;8.80;;;6.30;;
65206;SDS011;58477;48.072;11.970;2023-10-19T09:08:17;7.53;;;5.55;;
65206;SDS011;58477;48.072;11.970;2023-10-19T09:10:45;7.22;;;5.53;;
65206;SDS011;58477;48.072;11.970;2023-10-19T09:13:11;8.10;;;5.90;;
65206;SDS011;58477;48.072;11.970;2023-10-19T09:15:38;7.82;;;5.72;;
65206;SDS011;58477;48.072;11.970;2023-10-19T09:20:42;11.23;;;6.75;;
65206;SDS011;58477;48.072;11.970;2023-10-19T09:23:21;12.05;;;7.95;;
65206;SDS011;58477;48.072;11.970;2023-10-19T09:25:48;10.27;;;7.15;;
65206;SDS011;58477;48.072;11.970;2023-10-19T09:28:14;10.32;;;7.35;;
65206;SDS011;58477;48.072;11.970;2023-10-19T09:30:40;9.45;;;7.30;;
65206;SDS011;58477;48.072;11.970;2023-10-19T09:33:08;10.25;;;7.93;;
65206;SDS011;58477;48.072;11.970;2023-10-19T09:35:34;13.23;;;7.75;;
65206;SDS011;58477;48.072;11.970;2023-10-19T09:38:02;10.90;;;7.40;;
65206;SDS011;58477;48.072;11.970;2023-10-19T09:40:30;8.73;;;6.93;;
65206;SDS011;58477;48.072;11.970;2023-10-19T09:42:56;11.38;;;7.40;;
65206;SDS011;58477;48.072;11.970;2023-10-19T09:45:23;12.07;;;7.32;;
65206;SDS011;58477;48.072;11.970;2023-10-19T09:47:55;11.20;;;8.05;;
65206;SDS011;58477;48.072;11.970;2023-10-19T09:50:21;10.10;;;7.50;;
65206;SDS011;58477;48.072;11.970;2023-10-19T09:52:47;9.65;;;7.40;;
65206;SDS011;58477;48.072;11.970;2023-10-19T09:57:56;8.57;;;6.90;;
65206;SDS011;58477;48.072;11.970;2023-10-19T10:00:24;10.82;;;7.18;;
65206;SDS011;58477;48.072;11.970;2023-10-19T10:02:51;12.45;;;7.50;;
65206;SDS011;58477;48.072;11.970;2023-10-19T10:10:48;10.13;;;7.60;;
65206;SDS011;58477;48.072;11.970;2023-10-19T10:15:51;10.73;;;9.00;;
65206;SDS011;58477;48.072;11.970;2023-10-19T10:18:19;12.05;;;9.27;;
65206;SDS011;58477;48.072;11.970;2023-10-19T10:20:45;12.32;;;9.07;;
65206;SDS011;58477;48.072;11.970;2023-10-19T10:23:16;15.63;;;10.48;;
65206;SDS011;58477;48.072;11.970;2023-10-19T10:25:45;10.50;;;8.70;;
65206;SDS011;58477;48.072;11.970;2023-10-19T10:28:13;11.15;;;8.77;;
65206;SDS011;58477;48.072;11.970;2023-10-19T10:36:11;11.10;;;7.93;;
65206;SDS011;58477;48.072;11.970;2023-10-19T10:38:37;9.55;;;7.47;;
65206;SDS011;58477;48.072;11.970;2023-10-19T10:41:03;12.00;;;8.20;;
65206;SDS011;58477;48.072;11.970;2023-10-19T10:43:29;9.82;;;7.18;;
65206;SDS011;58477;48.072;11.970;2023-10-19T10:46:29;9.45;;;7.72;;
65206;SDS011;58477;48.072;11.970;2023-10-19T10:48:48;13.45;;;8.45;;
65206;SDS011;58477;48.072;11.970;2023-10-19T10:51:14;11.98;;;7.55;;
65206;SDS011;58477;48.072;11.970;2023-10-19T10:53:40;9.80;;;6.63;;
65206;SDS011;58477;48.072;11.970;2023-10-19T10:56:06;12.00;;;6.30;;
65206;SDS011;58477;48.072;11.970;2023-10-19T10:58:32;6.78;;;5.53;;
65206;SDS011;58477;48.072;11.970;2023-10-19T11:00:57;8.90;;;5.05;;
65206;SDS011;58477;48.072;11.970;2023-10-19T11:03:22;13.18;;;5.15;;
65206;SDS011;58477;48.072;11.970;2023-10-19T11:05:49;10.43;;;4.88;;
65206;SDS011;58477;48.072;11.970;2023-10-19T11:08:15;7.57;;;4.80;;
65206;SDS011;58477;48.072;11.970;2023-10-19T11:10:46;6.05;;;4.68;;
65206;SDS011;58477;48.072;11.970;2023-10-19T11:13:16;5.95;;;4.13;;
65206;SDS011;58477;48.072;11.970;2023-10-19T11:15:50;8.18;;;4.10;;
65206;SDS011;58477;48.072;11.970;2023-10-19T11:20:57;7.45;;;4.28;;
65206;SDS011;58477;48.072;11.970;2023-10-19T11:23:34;7.78;;;4.68;;
65206;SDS011;58477;48.072;11.970;2023-10-19T11:26:21;5.80;;;4.65;;
65206;SDS011;58477;48.072;11.970;2023-10-19T11:29:02;10.68;;;4.60;;
65206;SDS011;58477;48.072;11.970;2023-10-19T11:31:30;5.55;;;4.43;;
65206;SDS011;58477;48.072;11.970;2023-10-19T11:34:06;7.53;;;4.63;;
65206;SDS011;58477;48.072;11.970;2023-10-19T11:36:33;6.20;;;4.60;;
65206;SDS011;58477;48.072;11.970;2023-10-19T11:38:59;7.80;;;5.10;;
65206;SDS011;58477;48.072;11.970;2023-10-19T11:41:25;6.78;;;5.05;;
65206;SDS011;58477;48.072;11.970;2023-10-19T11:43:50;9.00;;;4.90;;
65206;SDS011;58477;48.072;11.970;2023-10-19T11:46:16;7.65;;;4.75;;
65206;SDS011;58477;48.072;11.970;2023-10-19T11:48:50;8.68;;;5.03;;
65206;SDS011;58477;48.072;11.970;2023-10-19T11:51:15;7.07;;;4.72;;
65206;SDS011;58477;48.072;11.970;2023-10-19T11:53:41;6.68;;;4.75;;
65206;SDS011;58477;48.072;11.970;2023-10-19T11:56:09;6.90;;;4.97;;
65206;SDS011;58477;48.072;11.970;2023-10-19T11:58:37;6.47;;;4.78;;
65206;SDS011;58477;48.072;11.970;2023-10-19T12:01:05;7.90;;;4.70;;
65206;SDS011;58477;48.072;11.970;2023-10-19T12:03:34;5.45;;;4.28;;
65206;SDS011;58477;48.072;11.970;2023-10-19T12:06:04;6.45;;;5.43;;
65206;SDS011;58477;48.072;11.970;2023-10-19T12:08:34;6.88;;;5.07;;
65206;SDS011;58477;48.072;11.970;2023-10-19T12:11:04;5.88;;;5.00;;
65206;SDS011;58477;48.072;11.970;2023-10-19T12:13:40;5.40;;;3.67;;
65206;SDS011;58477;48.072;11.970;2023-10-19T12:16:08;5.72;;;4.40;;
65206;SDS011;58477;48.072;11.970;2023-10-19T12:18:45;7.38;;;4.70;;
65206;SDS011;58477;48.072;11.970;2023-10-19T12:21:11;7.82;;;4.45;;
65206;SDS011;58477;48.072;11.970;2023-10-19T12:23:43;7.30;;;4.25;;
65206;SDS011;58477;48.072;11.970;2023-10-19T12:26:09;4.47;;;3.60;;
65206;SDS011;58477;48.072;11.970;2023-10-19T12:28:38;6.35;;;3.53;;
65206;SDS011;58477;48.072;11.970;2023-10-19T12:31:04;5.50;;;3.60;;
65206;SDS011;58477;48.072;11.970;2023-10-19T12:33:38;8.52;;;4.18;;
65206;SDS011;58477;48.072;11.970;2023-10-19T12:36:07;4.43;;;2.92;;
65206;SDS011;58477;48.072;11.970;2023-10-19T12:38:48;7.95;;;3.55;;
65206;SDS011;58477;48.072;11.970;2023-10-19T12:41:15;4.53;;;3.58;;
65206;SDS011;58477;48.072;11.970;2023-10-19T12:43:40;6.85;;;3.40;;
65206;SDS011;58477;48.072;11.970;2023-10-19T12:46:06;5.72;;;3.53;;
65206;SDS011;58477;48.072;11.970;2023-10-19T12:48:33;5.50;;;3.42;;
65206;SDS011;58477;48.072;11.970;2023-10-19T12:51:03;6.35;;;3.80;;
65206;SDS011;58477;48.072;11.970;2023-10-19T12:53:29;5.68;;;3.80;;
65206;SDS011;58477;48.072;11.970;2023-10-19T12:55:54;8.10;;;2.92;;
65206;SDS011;58477;48.072;11.970;2023-10-19T12:58:20;4.38;;;3.17;;
65206;SDS011;58477;48.072;11.970;2023-10-19T13:00:46;6.03;;;3.97;;
65206;SDS011;58477;48.072;11.970;2023-10-19T13:03:14;5.88;;;3.53;;
65206;SDS011;58477;48.072;11.970;2023-10-19T13:05:41;5.18;;;3.63;;
65206;SDS011;58477;48.072;11.970;2023-10-19T13:08:10;4.60;;;3.70;;
65206;SDS011;58477;48.072;11.970;2023-10-19T13:10:40;6.93;;;4.25;;
65206;SDS011;58477;48.072;11.970;2023-10-19T13:13:13;9.77;;;4.38;;
65206;SDS011;58477;48.072;11.970;2023-10-19T13:15:40;7.25;;;4.35;;
65206;SDS011;58477;48.072;11.970;2023-10-19T13:18:08;8.27;;;4.78;;
65206;SDS011;58477;48.072;11.970;2023-10-19T13:20:35;7.15;;;5.03;;
65206;SDS011;58477;48.072;11.970;2023-10-19T13:23:07;4.97;;;4.15;;
65206;SDS011;58477;48.072;11.970;2023-10-19T13:28:14;6.65;;;3.88;;
65206;SDS011;58477;48.072;11.970;2023-10-19T13:30:43;5.55;;;3.88;;
65206;SDS011;58477;48.072;11.970;2023-10-19T13:33:12;9.18;;;3.65;;
65206;SDS011;58477;48.072;11.970;2023-10-19T13:35:39;5.25;;;3.75;;
65206;SDS011;58477;48.072;11.970;2023-10-19T13:38:05;5.30;;;3.60;;
65206;SDS011;58477;48.072;11.970;2023-10-19T13:40:35;5.82;;;4.25;;
65206;SDS011;58477;48.072;11.970;2023-10-19T13:43:02;5.00;;;3.92;;
65206;SDS011;58477;48.072;11.970;2023-10-19T13:45:31;4.88;;;3.85;;
65206;SDS011;58477;48.072;11.970;2023-10-19T13:48:03;7.70;;;3.80;;
65206;SDS011;58477;48.072;11.970;2023-10-19T13:50:30;4.40;;;3.47;;
65206;SDS011;58477;48.072;11.970;2023-10-19T13:52:56;6.85;;;3.50;;
65206;SDS011;58477;48.072;11.970;2023-10-19T13:55:23;5.88;;;4.30;;
65206;SDS011;58477;48.072;11.970;2023-10-19T13:57:49;6.63;;;4.68;;
65206;SDS011;58477;48.072;11.970;2023-10-19T14:00:15;5.28;;;3.97;;
65206;SDS011;58477;48.072;11.970;2023-10-19T14:02:48;6.85;;;4.18;;
65206;SDS011;58477;48.072;11.970;2023-10-19T14:05:14;10.27;;;4.90;;
65206;SDS011;58477;48.072;11.970;2023-10-19T14:07:40;6.00;;;4.15;;
65206;SDS011;58477;48.072;11.970;2023-10-19T14:10:06;5.70;;;4.05;;
65206;SDS011;58477;48.072;11.970;2023-10-19T14:12:33;4.72;;;3.67;;
65206;SDS011;58477;48.072;11.970;2023-10-19T14:14:58;6.18;;;4.30;;
65206;SDS011;58477;48.072;11.970;2023-10-19T14:17:24;6.60;;;3.63;;
65206;SDS011;58477;48.072;11.970;2023-10-19T14:19:50;5.95;;;3.45;;
65206;SDS011;58477;48.072;11.970;2023-10-19T14:22:16;7.43;;;3.95;;
65206;SDS011;58477;48.072;11.970;2023-10-19T14:24:42;6.68;;;4.22;;
65206;SDS011;58477;48.072;11.970;2023-10-19T14:27:08;10.75;;;4.93;;
65206;SDS011;58477;48.072;11.970;2023-10-19T14:29:34;6.30;;;4.10;;
65206;SDS011;58477;48.072;11.970;2023-10-19T14:32:00;6.30;;;4.20;;
65206;SDS011;58477;48.072;11.970;2023-10-19T14:34:25;5.38;;;3.88;;
65206;SDS011;58477;48.072;11.970;2023-10-19T14:36:52;5.97;;;3.67;;
65206;SDS011;58477;48.072;11.970;2023-10-19T14:39:18;5.55;;;3.72;;
65206;SDS011;58477;48.072;11.970;2023-10-19T14:41:45;6.85;;;5.18;;
65206;SDS011;58477;48.072;11.970;2023-10-19T14:44:11;5.68;;;3.97;;
65206;SDS011;58477;48.072;11.970;2023-10-19T14:46:36;5.43;;;3.92;;
65206;SDS011;58477;48.072;11.970;2023-10-19T14:49:02;5.95;;;4.40;;
65206;SDS011;58477;48.072;11.970;2023-10-19T14:51:27;4.60;;;3.95;;
65206;SDS011;58477;48.072;11.970;2023-10-19T14:53:52;5.90;;;3.70;;